Etusivu
METAR-TAF:

METAR-TAF

Lentoasemat :

Trollhättan-Vänersborg, Ruotsi

Leveyspiiri: 58-19N, Pituuspiiri: 012-21E, korkeus merenpinnasta: 41 m

Tämänhetkinen sää

Tämä raportti tehtiin 9 tuntia ja 30 minuuttia sitten, kello 17.50 UTC
Tuuli 8 kn etelästä
Lämpötila 15°C
Kosteus 100%
Ilmanpaine 1013 hPa
Näkyvyys 10 km tai enemmän
Hajanaisia pilviä 1700 ft:n korkeudessa
Hajonneita pilviä 2000 ft:n korkeudessa
heikkoa sadetta

METAR: ESGT 191750Z 19008KT 9999 -RA SCT017 BKN020 15/15 Q1013

Aika: 05:20 (03:20 UTC)

Sääennuste

Tämä raportti tehtiin 11 tuntia ja 50 minuuttia sitten, kello 15.30 UTC
Ennuste voimassa 19. päivästä klo 16 UTC - 19. päivään klo 19 UTC
Tuuli 10 kn lounaasta
Näkyvyys 10 km tai enemmän
ei pilviä alle 1500 m:ssä eikä cumulonimbus-pilviä
Todennäköisyys 40%
19. päivästä klo 16 UTC - 19. päivään klo 19 UTC
sadetta

TAF: ESGT 191530Z 1916/1919 23010KT CAVOK PROB40 1916/1919 RA

Säähavainnot ja -ennusteet yli 4000 lentoasemalta (METAR- ja TAF-raportit).

Käytössä olevat sääasemat on merkitty karttaan keltaisilla ja punaisilla pisteillä.

Aseta hiiri pisteen päälle nähdäksesi sääaseman nimen.

Klikkaa sitten nähdäksesi säähavainnot ja -ennusteet.

Kartan vaihtaminen: klikkaa mustalla rastilla varustettuja vihreitä pisteitä, niin voit zoomata sisään; viivalla varustettua vihreää pistettä, niin voit zoomata ulos tai vihreitä nuolia, niin pääset viereisille kartoille.


METAR-TAF: